createdAt,value
2019-03-22T00:00:21.518Z,95038.71
2019-03-22T00:02:50.011Z,95037.41
2019-03-22T00:05:18.524Z,95034.47
2019-03-22T00:07:48.609Z,95040.80
2019-03-22T00:10:17.318Z,95039.20
2019-03-22T00:12:45.743Z,95041.78
2019-03-22T00:15:15.150Z,95037.28
2019-03-22T00:17:43.685Z,95033.44
2019-03-22T00:20:12.649Z,95029.83
2019-03-22T00:22:41.269Z,95029.53
2019-03-22T00:25:09.808Z,95038.42
2019-03-22T00:27:38.219Z,95036.66
2019-03-22T00:30:08.262Z,95042.37
2019-03-22T00:32:36.748Z,95034.84
2019-03-22T00:35:09.046Z,95041.54
2019-03-22T00:37:37.654Z,95035.70
2019-03-22T00:40:10.313Z,95036.44
2019-03-22T00:42:38.845Z,95036.27
2019-03-22T00:45:09.140Z,95033.13
2019-03-22T00:47:37.666Z,95023.71
2019-03-22T00:50:09.401Z,95026.16
2019-03-22T00:52:37.851Z,95027.66
2019-03-22T00:55:07.278Z,95020.56
2019-03-22T00:57:37.415Z,95022.22
2019-03-22T01:00:08.944Z,95024.73
2019-03-22T01:02:37.481Z,95019.70
2019-03-22T01:05:09.714Z,95022.05
2019-03-22T01:07:38.230Z,95018.41
2019-03-22T01:10:12.229Z,95014.10
2019-03-22T01:12:40.974Z,95021.49
2019-03-22T01:15:11.768Z,95024.37
2019-03-22T01:17:40.269Z,95016.19
2019-03-22T01:20:10.552Z,95029.30
2019-03-22T01:22:39.841Z,95027.16
2019-03-22T01:25:10.032Z,95027.25
2019-03-22T01:27:40.720Z,95021.55
2019-03-22T01:30:16.841Z,95021.48
2019-03-22T01:32:45.316Z,95018.69
2019-03-22T01:35:14.321Z,95015.66
2019-03-22T01:37:42.780Z,95009.07
2019-03-22T01:40:14.239Z,95003.17
2019-03-22T01:42:42.831Z,95010.33
2019-03-22T01:45:13.199Z,94980.59
2019-03-22T01:47:41.854Z,94956.03
2019-03-22T01:50:15.503Z,94975.53
2019-03-22T01:52:43.975Z,94975.53
2019-03-22T01:55:12.582Z,94995.45
2019-03-22T01:57:52.454Z,94990.00
2019-03-22T02:00:18.219Z,94987.61
2019-03-22T02:02:46.844Z,94991.80
2019-03-22T02:05:16.084Z,94987.14
2019-03-22T02:07:44.787Z,94982.34
2019-03-22T02:10:13.347Z,94987.41
2019-03-22T02:12:42.700Z,94984.84
2019-03-22T02:15:16.172Z,94980.33
2019-03-22T02:17:44.895Z,94990.92
2019-03-22T02:20:15.551Z,94991.02
2019-03-22T02:22:44.145Z,94993.31
2019-03-22T02:25:12.991Z,94990.41
2019-03-22T02:27:42.491Z,94995.77
2019-03-22T02:30:13.729Z,94993.19
2019-03-22T02:32:42.319Z,94993.36
2019-03-22T02:35:26.975Z,94994.28
2019-03-22T02:37:41.317Z,94995.66
2019-03-22T02:40:11.653Z,94997.73
2019-03-22T02:42:40.066Z,94999.39
2019-03-22T02:45:10.857Z,94999.39
2019-03-22T02:47:39.372Z,95000.83
2019-03-22T02:50:17.704Z,94996.34
2019-03-22T02:52:40.584Z,94997.06
2019-03-22T02:55:10.442Z,94995.33
2019-03-22T02:57:38.945Z,94993.62
2019-03-22T03:00:13.258Z,94987.70
2019-03-22T03:02:41.766Z,94990.69
2019-03-22T03:05:11.052Z,94990.82
2019-03-22T03:07:39.537Z,94995.88
2019-03-22T03:10:12.890Z,94997.03
2019-03-22T03:12:41.432Z,94988.96
2019-03-22T03:15:15.368Z,94991.02
2019-03-22T03:17:43.947Z,94990.88
2019-03-22T03:20:16.762Z,94989.28
2019-03-22T03:22:45.298Z,94988.22
2019-03-22T03:25:14.141Z,94986.95
2019-03-22T03:27:42.566Z,94986.95
2019-03-22T03:30:19.812Z,94985.53
2019-03-22T03:32:48.416Z,94973.11
2019-03-22T03:35:18.001Z,94973.11
2019-03-22T03:37:46.549Z,94989.75
2019-03-22T03:40:16.757Z,94989.75
2019-03-22T03:42:45.212Z,94989.62
2019-03-22T03:45:35.919Z,94989.62
2019-03-22T03:48:10.238Z,94993.97
2019-03-22T03:50:38.986Z,94999.91
2019-03-22T03:53:07.586Z,94998.95
2019-03-22T03:55:36.339Z,94995.03
2019-03-22T03:58:06.042Z,95007.30
2019-03-22T04:00:34.614Z,95007.30
2019-03-22T04:03:03.227Z,95006.27
2019-03-22T04:05:31.828Z,95005.06
2019-03-22T04:08:00.335Z,95005.06
2019-03-22T04:10:28.761Z,94985.09
2019-03-22T04:12:57.378Z,94965.47
2019-03-22T04:15:25.749Z,94965.47
2019-03-22T04:17:54.284Z,95004.53
2019-03-22T04:20:24.252Z,95000.72
2019-03-22T04:22:52.698Z,94998.45
2019-03-22T04:25:21.119Z,94997.17
2019-03-22T04:27:49.649Z,95004.78
2019-03-22T04:30:18.232Z,95003.69
2019-03-22T04:32:46.674Z,95004.78
2019-03-22T04:35:15.238Z,94998.18
2019-03-22T04:37:43.699Z,95005.70
2019-03-22T04:40:26.160Z,95003.55
2019-03-22T04:42:54.775Z,95003.34
2019-03-22T04:45:25.132Z,95002.92
2019-03-22T04:48:05.731Z,95000.16
2019-03-22T04:50:37.213Z,95002.95
2019-03-22T04:53:07.441Z,95005.44
2019-03-22T04:55:37.673Z,95007.34
2019-03-22T04:58:08.115Z,95015.69
2019-03-22T05:00:37.673Z,95010.33
2019-03-22T05:03:10.822Z,95012.75
2019-03-22T05:05:39.606Z,95011.45
2019-03-22T05:08:08.975Z,95009.94
2019-03-22T05:10:38.770Z,95009.98
2019-03-22T05:13:08.983Z,95009.98
2019-03-22T05:15:38.404Z,95014.17
2019-03-22T05:18:07.078Z,95017.05
2019-03-22T05:20:36.338Z,95014.72
2019-03-22T05:23:05.821Z,95003.49
2019-03-22T05:25:35.518Z,95001.42
2019-03-22T05:28:05.812Z,94999.24
2019-03-22T05:30:53.749Z,95001.66
2019-03-22T05:33:22.242Z,95007.59
2019-03-22T05:35:50.661Z,95009.47
2019-03-22T05:38:19.086Z,95011.38
2019-03-22T05:40:47.557Z,95010.71
2019-03-22T05:43:16.010Z,95006.51
2019-03-22T05:45:45.475Z,95007.42
2019-03-22T05:48:13.933Z,95009.91
2019-03-22T05:50:42.357Z,95006.00
2019-03-22T05:53:10.792Z,95003.13
2019-03-22T05:55:39.360Z,95005.16
2019-03-22T05:58:07.846Z,95010.47
2019-03-22T06:00:36.347Z,95014.57
2019-03-22T06:03:04.905Z,95013.72
2019-03-22T06:05:33.319Z,95011.14
2019-03-22T06:08:01.773Z,95023.75
2019-03-22T06:10:30.216Z,95015.75
2019-03-22T06:12:58.633Z,95015.06
2019-03-22T06:15:27.179Z,95014.29
2019-03-22T06:17:55.599Z,95012.25
2019-03-22T06:20:24.084Z,95017.66
2019-03-22T06:22:52.564Z,95017.86
2019-03-22T06:25:21.118Z,95021.83
2019-03-22T06:27:49.841Z,95019.84
2019-03-22T06:30:18.331Z,95013.00
2019-03-22T06:32:46.761Z,95012.16
2019-03-22T06:35:15.216Z,95013.51
2019-03-22T06:37:43.634Z,95020.77
2019-03-22T06:40:12.506Z,95019.74
2019-03-22T06:42:41.300Z,95022.50
2019-03-22T06:45:09.860Z,95023.68
2019-03-22T06:47:38.356Z,95029.17
2019-03-22T06:50:07.641Z,95030.31
2019-03-22T06:52:36.130Z,95031.59
2019-03-22T06:55:06.651Z,95020.59
2019-03-22T06:57:35.210Z,95023.02
2019-03-22T07:00:07.476Z,95024.03
2019-03-22T07:02:36.150Z,95035.61
2019-03-22T07:05:06.414Z,95028.81
2019-03-22T07:07:34.997Z,95037.51
2019-03-22T07:10:05.161Z,95030.84
2019-03-22T07:12:33.683Z,95033.77
2019-03-22T07:15:02.114Z,95028.25
2019-03-22T07:17:30.534Z,95023.91
2019-03-22T07:19:59.074Z,95030.91
2019-03-22T07:22:27.530Z,95033.93
2019-03-22T07:24:56.038Z,95030.45
2019-03-22T07:27:24.453Z,95030.37
2019-03-22T07:29:53.175Z,95034.56
2019-03-22T07:32:21.747Z,95035.52
2019-03-22T07:34:50.166Z,95040.94
2019-03-22T07:37:18.836Z,95027.23
2019-03-22T07:39:47.303Z,95034.43
2019-03-22T07:42:17.576Z,95035.09
2019-03-22T07:44:45.864Z,95038.84
2019-03-22T07:47:14.292Z,95032.40
2019-03-22T07:49:42.759Z,95025.59
2019-03-22T07:52:11.288Z,95025.84
2019-03-22T07:54:39.702Z,95018.66
2019-03-22T07:57:08.160Z,95004.99
2019-03-22T07:59:36.632Z,95006.03
2019-03-22T08:02:05.200Z,95008.05
2019-03-22T08:04:33.647Z,95003.67
2019-03-22T08:07:02.156Z,95001.22
2019-03-22T08:09:30.607Z,94998.86
2019-03-22T08:11:59.546Z,94990.48
2019-03-22T08:14:28.072Z,94990.86
2019-03-22T08:16:56.581Z,94997.66
2019-03-22T08:19:25.187Z,94998.85
2019-03-22T08:21:53.675Z,94991.14
2019-03-22T08:24:22.563Z,94984.91
2019-03-22T08:26:50.998Z,94974.76
2019-03-22T08:29:19.469Z,94977.47
2019-03-22T08:31:47.891Z,94969.91
2019-03-22T08:34:16.319Z,94965.52
2019-03-22T08:36:44.792Z,94970.42
2019-03-22T08:39:13.211Z,94965.36
2019-03-22T08:41:41.723Z,94963.92
2019-03-22T08:44:10.282Z,94959.52
2019-03-22T08:46:38.737Z,94960.52
2019-03-22T08:49:09.448Z,94971.56
2019-03-22T08:51:37.434Z,94968.01
2019-03-22T08:54:05.982Z,94971.69
2019-03-22T08:56:35.992Z,94972.08
2019-03-22T08:59:04.921Z,94977.21
2019-03-22T09:01:33.338Z,94965.61
2019-03-22T09:04:01.834Z,94964.22
2019-03-22T09:06:30.304Z,94961.20
2019-03-22T09:08:58.734Z,94968.88
2019-03-22T09:11:27.221Z,94959.20
2019-03-22T09:13:55.681Z,94957.78
2019-03-22T09:16:24.352Z,94952.52
2019-03-22T09:18:52.743Z,94957.78
2019-03-22T09:21:21.307Z,94948.74
2019-03-22T09:23:49.717Z,94946.10
2019-03-22T09:26:19.993Z,94944.09
2019-03-22T09:28:48.337Z,94950.45
2019-03-22T09:31:16.749Z,94951.83
2019-03-22T09:33:45.238Z,94941.80
2019-03-22T09:36:13.727Z,94942.34
2019-03-22T09:38:42.148Z,94946.13
2019-03-22T09:41:10.838Z,94947.39
2019-03-22T09:43:39.399Z,94948.95
2019-03-22T09:46:07.805Z,94947.21
2019-03-22T09:48:36.247Z,94947.48
2019-03-22T09:51:04.699Z,94949.32
2019-03-22T09:53:33.128Z,94948.09
2019-03-22T09:56:01.787Z,94943.05
2019-03-22T09:58:30.224Z,94938.22
2019-03-22T10:00:58.701Z,94943.11
2019-03-22T10:03:27.217Z,94944.06
2019-03-22T10:05:55.685Z,94947.14
2019-03-22T10:08:24.158Z,94937.91
2019-03-22T10:10:52.577Z,94929.10
2019-03-22T10:13:21.005Z,94930.27
2019-03-22T10:15:49.496Z,94934.45
2019-03-22T10:18:17.944Z,94922.47
2019-03-22T10:20:46.451Z,94922.60
2019-03-22T10:23:14.866Z,94921.27
2019-03-22T10:25:43.312Z,94918.24
2019-03-22T10:28:11.842Z,94915.92
2019-03-22T10:30:40.279Z,94913.65
2019-03-22T10:33:21.747Z,94917.13
2019-03-22T10:35:38.900Z,94908.67
2019-03-22T10:38:15.935Z,94908.27
2019-03-22T10:40:37.578Z,94906.54
2019-03-22T10:43:06.109Z,94908.56
2019-03-22T10:45:34.628Z,94908.52
2019-03-22T10:48:03.125Z,94910.32
2019-03-22T10:50:31.506Z,94906.53
2019-03-22T10:53:00.132Z,94904.40
2019-03-22T10:55:30.256Z,94901.47
2019-03-22T10:57:58.939Z,94903.25
2019-03-22T11:00:27.496Z,94899.02
2019-03-22T11:02:56.023Z,94894.45
2019-03-22T11:05:24.556Z,94891.32
2019-03-22T11:07:53.044Z,94892.27
2019-03-22T11:10:21.517Z,94882.21
2019-03-22T11:12:49.927Z,94887.84
2019-03-22T11:15:18.344Z,94898.56
2019-03-22T11:17:47.035Z,94887.52
2019-03-22T11:20:18.564Z,94891.80
2019-03-22T11:22:47.009Z,94886.50
2019-03-22T11:25:15.596Z,94885.74
2019-03-22T11:27:44.100Z,94895.20
2019-03-22T11:30:18.462Z,94890.24
2019-03-22T11:32:47.025Z,94889.48
2019-03-22T11:35:15.854Z,94882.77
2019-03-22T11:37:44.468Z,94882.69
2019-03-22T11:40:15.407Z,94885.49
2019-03-22T11:42:44.007Z,94882.20
2019-03-22T11:45:18.336Z,94892.48
2019-03-22T11:47:47.035Z,94886.70
2019-03-22T11:50:15.618Z,94877.80
2019-03-22T11:52:44.133Z,94883.92
2019-03-22T11:55:13.994Z,94882.25
2019-03-22T11:57:42.595Z,94880.20
2019-03-22T12:00:20.024Z,94875.97
2019-03-22T12:02:48.465Z,94879.20
2019-03-22T12:05:18.022Z,94874.33
2019-03-22T12:07:46.622Z,94871.00
2019-03-22T12:10:18.305Z,94867.43
2019-03-22T12:12:46.833Z,94869.09
2019-03-22T12:15:18.609Z,94872.97
2019-03-22T12:17:47.205Z,94867.64
2019-03-22T12:20:21.102Z,94858.53
2019-03-22T12:22:49.535Z,94859.87
2019-03-22T12:25:21.215Z,94853.77
2019-03-22T12:27:49.666Z,94850.25
2019-03-22T12:30:18.930Z,94853.94
2019-03-22T12:32:47.448Z,94856.03
2019-03-22T12:35:17.423Z,94851.42
2019-03-22T12:37:46.200Z,94858.88
2019-03-22T12:40:22.766Z,94857.72
2019-03-22T12:42:51.643Z,94858.57
2019-03-22T12:45:32.752Z,94861.86
2019-03-22T12:48:01.475Z,94864.17
2019-03-22T12:50:30.054Z,94863.43
2019-03-22T12:52:58.579Z,94862.36
2019-03-22T12:55:27.205Z,94862.61
2019-03-22T12:57:55.635Z,94863.80
2019-03-22T13:00:25.347Z,94859.72
2019-03-22T13:02:54.520Z,94861.14
2019-03-22T13:05:23.397Z,94852.09
2019-03-22T13:07:52.098Z,94854.52
2019-03-22T13:10:24.723Z,94859.02
2019-03-22T13:12:55.399Z,94864.29
2019-03-22T13:15:23.989Z,94861.67
2019-03-22T13:17:52.551Z,94855.50
2019-03-22T13:20:21.086Z,94855.77
2019-03-22T13:22:49.536Z,94859.14
2019-03-22T13:25:21.106Z,94857.22
2019-03-22T13:27:49.219Z,94862.48
2019-03-22T13:30:28.997Z,94857.47
2019-03-22T13:32:57.497Z,94860.12
2019-03-22T13:35:25.934Z,94865.51
2019-03-22T13:37:54.417Z,94853.23
2019-03-22T13:40:23.125Z,94855.89
2019-03-22T13:42:51.549Z,94851.22
2019-03-22T13:45:20.079Z,94850.81
2019-03-22T13:47:48.601Z,94846.69
2019-03-22T13:50:17.345Z,94856.97
2019-03-22T13:52:45.802Z,94853.70
2019-03-22T13:55:14.607Z,94847.19
2019-03-22T13:57:43.087Z,94847.56
2019-03-22T14:00:16.365Z,94848.98
2019-03-22T14:02:44.892Z,94842.23
2019-03-22T14:05:13.535Z,94842.80
2019-03-22T14:07:42.144Z,94842.12
2019-03-22T14:10:19.223Z,94841.59
2019-03-22T14:12:47.659Z,94842.43
2019-03-22T14:15:16.073Z,94848.19
2019-03-22T14:17:44.548Z,94846.34
2019-03-22T14:20:13.200Z,94851.85
2019-03-22T14:22:41.685Z,94850.45
2019-03-22T14:25:10.746Z,94848.79
2019-03-22T14:27:39.336Z,94847.11
2019-03-22T14:30:10.021Z,94835.92
2019-03-22T14:32:38.448Z,94838.11
2019-03-22T14:35:08.050Z,94838.55
2019-03-22T14:37:36.499Z,94832.42
2019-03-22T14:40:06.365Z,94841.77
2019-03-22T14:42:34.961Z,94829.62
2019-03-22T14:45:05.569Z,94827.19
2019-03-22T14:47:34.084Z,94829.05
2019-03-22T14:50:02.597Z,94821.86
2019-03-22T14:52:31.132Z,94816.58
2019-03-22T14:54:59.574Z,94808.41
2019-03-22T14:57:28.099Z,94812.38
2019-03-22T14:59:59.117Z,94810.30
2019-03-22T15:02:26.730Z,94808.98
2019-03-22T15:04:55.230Z,94808.73
2019-03-22T15:07:23.707Z,94816.61
2019-03-22T15:09:52.203Z,94808.44
2019-03-22T15:12:20.767Z,94814.24
2019-03-22T15:14:50.963Z,94811.73
2019-03-22T15:17:35.749Z,94803.95
2019-03-22T15:20:07.202Z,94804.78
2019-03-22T15:22:49.514Z,94799.05
2019-03-22T15:25:35.526Z,94798.08
2019-03-22T15:28:22.438Z,94797.05
2019-03-22T15:30:52.496Z,94801.92
2019-03-22T15:33:34.351Z,94802.55
2019-03-22T15:36:00.443Z,94799.82
2019-03-22T15:38:33.119Z,94800.54
2019-03-22T15:41:01.688Z,94798.28
2019-03-22T15:43:30.120Z,94803.48
2019-03-22T15:45:58.595Z,94806.04
2019-03-22T15:48:27.187Z,94801.33
2019-03-22T15:50:55.722Z,94800.32
2019-03-22T15:53:24.292Z,94800.63
2019-03-22T15:55:52.828Z,94809.17
2019-03-22T15:58:21.567Z,94795.44
2019-03-22T16:00:50.002Z,94798.70
2019-03-22T16:03:18.558Z,94794.00
2019-03-22T16:05:47.037Z,94796.16
2019-03-22T16:08:15.481Z,94801.95
2019-03-22T16:10:43.938Z,94795.03
2019-03-22T16:13:12.449Z,94797.02
2019-03-22T16:15:40.984Z,94799.56
2019-03-22T16:18:09.400Z,94796.22
2019-03-22T16:20:37.982Z,94799.35
2019-03-22T16:23:06.483Z,94790.96
2019-03-22T16:25:34.982Z,94799.25
2019-03-22T16:28:03.537Z,94796.42
2019-03-22T16:30:32.078Z,94792.81
2019-03-22T16:33:00.524Z,94796.69
2019-03-22T16:35:29.134Z,94801.44
2019-03-22T16:37:57.627Z,94794.05
2019-03-22T16:40:26.095Z,94796.88
2019-03-22T16:42:54.581Z,94790.80
2019-03-22T16:45:34.248Z,94795.11
2019-03-22T16:48:02.793Z,94795.19
2019-03-22T16:50:31.308Z,94791.69
2019-03-22T16:52:59.810Z,94796.38
2019-03-22T16:55:28.359Z,94791.56
2019-03-22T16:57:56.838Z,94792.17
2019-03-22T17:00:25.302Z,94794.22
2019-03-22T17:02:53.871Z,94784.93
2019-03-22T17:05:22.419Z,94798.41
2019-03-22T17:07:51.111Z,94795.45
2019-03-22T17:10:19.578Z,94796.77
2019-03-22T17:12:48.105Z,94799.81
2019-03-22T17:15:16.606Z,94796.19
2019-03-22T17:17:45.138Z,94798.69
2019-03-22T17:20:15.171Z,94796.84
2019-03-22T17:22:43.679Z,94796.89
2019-03-22T17:25:12.287Z,94801.04
2019-03-22T17:27:40.790Z,94801.92
2019-03-22T17:30:10.987Z,94802.55
2019-03-22T17:32:39.491Z,94805.83
2019-03-22T17:35:08.327Z,94802.20
2019-03-22T17:37:36.757Z,94808.16
2019-03-22T17:40:07.452Z,94807.01
2019-03-22T17:42:35.998Z,94807.66
2019-03-22T17:45:10.299Z,94806.76
2019-03-22T17:47:38.883Z,94808.66
2019-03-22T17:50:09.266Z,94810.69
2019-03-22T17:52:37.690Z,94816.67
2019-03-22T17:55:09.216Z,94825.95
2019-03-22T17:57:37.784Z,94825.69
2019-03-22T18:00:16.433Z,94825.63
2019-03-22T18:02:45.035Z,94830.08
2019-03-22T18:05:13.615Z,94831.88
2019-03-22T18:07:42.057Z,94828.05
2019-03-22T18:10:13.381Z,94831.26
2019-03-22T18:12:41.894Z,94831.37
2019-03-22T18:15:12.693Z,94831.86
2019-03-22T18:17:41.133Z,94829.28
2019-03-22T18:20:14.818Z,94823.33
2019-03-22T18:22:43.341Z,94824.73
2019-03-22T18:25:13.107Z,94821.84
2019-03-22T18:27:41.644Z,94825.59
2019-03-22T18:30:12.892Z,94821.03
2019-03-22T18:32:41.346Z,94828.55
2019-03-22T18:35:10.215Z,94822.70
2019-03-22T18:37:38.763Z,94828.33
2019-03-22T18:40:09.581Z,94827.02
2019-03-22T18:42:38.105Z,94827.75
2019-03-22T18:45:08.796Z,94824.48
2019-03-22T18:47:37.241Z,94828.41
2019-03-22T18:50:08.396Z,94833.37
2019-03-22T18:52:37.226Z,94835.31
2019-03-22T18:55:06.999Z,94836.00
2019-03-22T18:57:35.878Z,94832.45
2019-03-22T19:00:09.857Z,94828.87
2019-03-22T19:02:38.307Z,94834.75
2019-03-22T19:05:08.145Z,94839.38
2019-03-22T19:07:36.644Z,94840.64
2019-03-22T19:10:10.947Z,94838.04
2019-03-22T19:12:39.541Z,94839.67
2019-03-22T19:15:10.720Z,94845.91
2019-03-22T19:17:39.282Z,94843.64
2019-03-22T19:20:10.508Z,94844.92
2019-03-22T19:22:39.119Z,94840.66
2019-03-22T19:25:09.383Z,94837.72
2019-03-22T19:27:37.962Z,94840.34
2019-03-22T19:30:09.475Z,94842.56
2019-03-22T19:32:37.969Z,94842.23
2019-03-22T19:35:08.434Z,94841.90
2019-03-22T19:37:37.070Z,94838.61
2019-03-22T19:40:08.211Z,94832.03
2019-03-22T19:42:36.782Z,94838.22
2019-03-22T19:45:07.910Z,94836.25
2019-03-22T19:47:36.532Z,94835.94
2019-03-22T19:50:08.354Z,94841.14
2019-03-22T19:52:36.862Z,94839.20
2019-03-22T19:55:09.443Z,94839.19
2019-03-22T19:57:38.313Z,94837.16
2019-03-22T20:00:12.415Z,94837.16
2019-03-22T20:02:41.024Z,94835.84
2019-03-22T20:05:10.024Z,94826.06
2019-03-22T20:07:38.526Z,94829.30
2019-03-22T20:10:12.246Z,94838.73
2019-03-22T20:12:41.714Z,94848.17
2019-03-22T20:15:10.674Z,94848.11
2019-03-22T20:17:39.203Z,94847.38
2019-03-22T20:20:09.273Z,94841.16
2019-03-22T20:22:37.805Z,94844.41
2019-03-22T20:25:08.381Z,94842.73
2019-03-22T20:27:36.935Z,94850.86
2019-03-22T20:30:08.416Z,94856.34
2019-03-22T20:32:36.909Z,94849.47
2019-03-22T20:35:15.692Z,94855.30
2019-03-22T20:37:37.261Z,94857.27
2019-03-22T20:40:08.426Z,94856.22
2019-03-22T20:42:36.869Z,94860.84
2019-03-22T20:45:07.103Z,94862.28
2019-03-22T20:47:35.539Z,94867.39
2019-03-22T20:50:07.797Z,94866.22
2019-03-22T20:52:36.402Z,94860.50
2019-03-22T20:55:09.644Z,94860.67
2019-03-22T20:57:38.171Z,94853.09
2019-03-22T21:00:12.177Z,94858.66
2019-03-22T21:02:40.752Z,94855.66
2019-03-22T21:05:09.600Z,94851.45
2019-03-22T21:07:38.225Z,94851.41
2019-03-22T21:10:08.642Z,94854.59
2019-03-22T21:12:39.533Z,94860.70
2019-03-22T21:15:10.206Z,94859.90
2019-03-22T21:17:38.801Z,94863.17
2019-03-22T21:20:11.155Z,94857.90
2019-03-22T21:22:39.628Z,94860.66
2019-03-22T21:25:09.368Z,94861.65
2019-03-22T21:27:37.808Z,94860.19
2019-03-22T21:30:08.687Z,94862.39
2019-03-22T21:32:45.178Z,94859.53
2019-03-22T21:35:08.409Z,94863.79
2019-03-22T21:37:36.947Z,94861.48
2019-03-22T21:40:07.304Z,94860.18
2019-03-22T21:42:35.786Z,94856.62
2019-03-22T21:45:05.858Z,94853.80
2019-03-22T21:47:34.575Z,94854.14
2019-03-22T21:50:03.601Z,94848.67
2019-03-22T21:52:32.101Z,94855.80
2019-03-22T21:55:00.621Z,94845.72
2019-03-22T21:57:29.066Z,94843.02
2019-03-22T21:59:57.591Z,94846.71
2019-03-22T22:02:25.973Z,94837.64
2019-03-22T22:04:54.497Z,94841.36
2019-03-22T22:07:22.948Z,94837.95
2019-03-22T22:09:51.380Z,94835.50
2019-03-22T22:12:20.023Z,94838.25
2019-03-22T22:14:48.461Z,94834.26
2019-03-22T22:17:17.009Z,94842.35
2019-03-22T22:19:45.465Z,94830.09
2019-03-22T22:22:13.873Z,94833.45
2019-03-22T22:24:42.343Z,94830.44
2019-03-22T22:27:14.079Z,94830.02
2019-03-22T22:29:41.030Z,94830.86
2019-03-22T22:32:09.649Z,94836.31
2019-03-22T22:34:38.093Z,94832.19
2019-03-22T22:37:06.694Z,94828.92
2019-03-22T22:39:35.151Z,94831.08
2019-03-22T22:42:03.632Z,94824.25
2019-03-22T22:44:32.093Z,94822.19
2019-03-22T22:47:00.623Z,94831.08
2019-03-22T22:49:29.101Z,94831.47
2019-03-22T22:51:57.594Z,94835.25
2019-03-22T22:54:26.029Z,94835.09
2019-03-22T22:56:54.535Z,94833.13
2019-03-22T22:59:22.997Z,94835.02
2019-03-22T23:01:51.485Z,94842.53
2019-03-22T23:04:19.980Z,94844.19
2019-03-22T23:06:48.450Z,94842.28
2019-03-22T23:09:16.955Z,94845.59
2019-03-22T23:11:45.427Z,94841.52
2019-03-22T23:14:13.979Z,94841.45
2019-03-22T23:16:42.402Z,94839.80
2019-03-22T23:19:10.891Z,94841.98
2019-03-22T23:21:39.328Z,94841.98
2019-03-22T23:24:07.755Z,94840.20
2019-03-22T23:26:36.211Z,94837.98
2019-03-22T23:29:04.856Z,94844.92
2019-03-22T23:31:33.290Z,94845.20
2019-03-22T23:34:01.715Z,94847.22
2019-03-22T23:36:30.286Z,94845.20
2019-03-22T23:38:58.750Z,94850.92
2019-03-22T23:41:27.217Z,94844.43
2019-03-22T23:43:55.659Z,94844.78
2019-03-22T23:46:24.117Z,94846.60
2019-03-22T23:48:52.534Z,94846.69
2019-03-22T23:51:20.964Z,94843.04
2019-03-22T23:53:49.425Z,94846.86
2019-03-22T23:56:17.964Z,94843.31
2019-03-22T23:58:46.404Z,94845.48
